createdAt,value
2022-12-03T00:00:55.766Z,2.80
2022-12-03T00:01:55.450Z,2.76
2022-12-03T00:02:54.959Z,2.77
2022-12-03T00:03:54.806Z,2.77
2022-12-03T00:04:54.924Z,2.77
2022-12-03T00:05:54.681Z,2.79
2022-12-03T00:06:54.671Z,2.79
2022-12-03T00:07:54.726Z,2.79
2022-12-03T00:08:54.672Z,2.81
2022-12-03T00:09:58.369Z,2.79
2022-12-03T00:10:54.622Z,2.81
2022-12-03T00:11:54.976Z,2.81
2022-12-03T00:12:54.604Z,2.80
2022-12-03T00:13:54.583Z,2.79
2022-12-03T00:14:55.284Z,2.77
2022-12-03T00:15:54.625Z,2.77
2022-12-03T00:16:54.572Z,2.77
2022-12-03T00:17:54.547Z,2.77
2022-12-03T00:18:54.525Z,2.79
2022-12-03T00:19:54.511Z,2.79
2022-12-03T00:20:54.524Z,2.79
2022-12-03T00:21:54.509Z,2.79
2022-12-03T00:22:54.475Z,2.79
2022-12-03T00:23:54.474Z,2.79
2022-12-03T00:24:54.762Z,2.81
2022-12-03T00:25:54.441Z,2.81
2022-12-03T00:26:54.539Z,2.80
2022-12-03T00:27:54.432Z,2.76
2022-12-03T00:28:54.397Z,2.76
2022-12-03T00:29:54.408Z,2.71
2022-12-03T00:30:56.218Z,2.73
2022-12-03T00:31:54.348Z,2.73
2022-12-03T00:32:54.360Z,2.73
2022-12-03T00:33:54.342Z,2.73
2022-12-03T00:34:54.541Z,2.69
2022-12-03T00:35:54.303Z,2.69
2022-12-03T00:36:54.297Z,2.71
2022-12-03T00:37:54.282Z,2.69
2022-12-03T00:38:54.294Z,2.69
2022-12-03T00:39:54.259Z,2.66
2022-12-03T00:40:54.255Z,2.66
2022-12-03T00:41:54.235Z,2.66
2022-12-03T00:42:55.983Z,2.68
2022-12-03T00:43:54.215Z,2.66
2022-12-03T00:44:54.413Z,2.68
2022-12-03T00:45:54.193Z,2.66
2022-12-03T00:46:54.514Z,2.66
2022-12-03T00:47:54.183Z,2.63
2022-12-03T00:48:54.152Z,2.65
2022-12-03T00:49:54.133Z,2.62
2022-12-03T00:50:54.154Z,2.63
2022-12-03T00:51:54.113Z,2.62
2022-12-03T00:52:54.104Z,2.63
2022-12-03T00:53:54.106Z,2.59
2022-12-03T00:54:54.385Z,2.58
2022-12-03T00:55:54.069Z,2.56
2022-12-03T00:56:54.085Z,2.58
2022-12-03T00:57:54.074Z,2.59
2022-12-03T00:58:54.049Z,2.59
2022-12-03T00:59:58.175Z,2.56
2022-12-03T01:00:54.015Z,2.53
2022-12-03T01:01:54.116Z,2.55
2022-12-03T01:02:54.027Z,2.55
2022-12-03T01:03:57.802Z,2.55
2022-12-03T01:04:54.324Z,2.56
2022-12-03T01:06:06.322Z,2.55
2022-12-03T01:06:53.961Z,2.51
2022-12-03T01:07:53.975Z,2.51
2022-12-03T01:08:53.948Z,2.50
2022-12-03T01:09:54.169Z,2.50
2022-12-03T01:10:53.907Z,2.51
2022-12-03T01:11:53.894Z,2.50
2022-12-03T01:12:54.041Z,2.51
2022-12-03T01:13:53.851Z,2.51
2022-12-03T01:14:54.247Z,2.51
2022-12-03T01:15:53.902Z,2.50
2022-12-03T01:16:54.531Z,2.51
2022-12-03T01:17:53.810Z,2.50
2022-12-03T01:18:54.039Z,2.48
2022-12-03T01:19:53.775Z,2.48
2022-12-03T01:20:53.812Z,2.48
2022-12-03T01:21:53.752Z,2.45
2022-12-03T01:22:53.755Z,2.45
2022-12-03T01:23:53.722Z,2.47
2022-12-03T01:24:53.987Z,2.48
2022-12-03T01:25:53.771Z,2.48
2022-12-03T01:26:53.891Z,2.48
2022-12-03T01:27:53.680Z,2.47
2022-12-03T01:28:57.699Z,2.48
2022-12-03T01:29:53.662Z,2.45
2022-12-03T01:30:53.716Z,2.45
2022-12-03T01:31:53.649Z,2.47
2022-12-03T01:32:53.724Z,2.45
2022-12-03T01:33:53.613Z,2.48
2022-12-03T01:34:53.845Z,2.48
2022-12-03T01:35:53.580Z,2.50
2022-12-03T01:36:53.572Z,2.51
2022-12-03T01:37:53.589Z,2.51
2022-12-03T01:38:53.571Z,2.55
2022-12-03T01:39:57.413Z,2.53
2022-12-03T01:40:53.525Z,2.50
2022-12-03T01:41:53.557Z,2.48
2022-12-03T01:42:53.539Z,2.48
2022-12-03T01:43:57.277Z,2.45
2022-12-03T01:44:53.791Z,2.44
2022-12-03T01:45:53.458Z,2.47
2022-12-03T01:46:53.552Z,2.48
2022-12-03T01:47:53.448Z,2.45
2022-12-03T01:48:53.440Z,2.44
2022-12-03T01:49:57.469Z,2.45
2022-12-03T01:50:53.407Z,2.48
2022-12-03T01:51:53.390Z,2.47
2022-12-03T01:52:53.378Z,2.47
2022-12-03T01:53:53.358Z,2.47
2022-12-03T01:54:53.725Z,2.45
2022-12-03T01:55:53.332Z,2.45
2022-12-03T01:56:53.329Z,2.45
2022-12-03T01:57:53.308Z,2.45
2022-12-03T01:58:53.487Z,2.45
2022-12-03T01:59:53.399Z,2.47
2022-12-03T02:00:57.441Z,2.50
2022-12-03T02:01:53.289Z,2.50
2022-12-03T02:02:53.290Z,2.48
2022-12-03T02:03:53.311Z,2.47
2022-12-03T02:04:53.469Z,2.48
2022-12-03T02:05:53.322Z,2.45
2022-12-03T02:06:57.121Z,2.48
2022-12-03T02:07:53.281Z,2.48
2022-12-03T02:08:53.264Z,2.47
2022-12-03T02:09:53.165Z,2.47
2022-12-03T02:10:53.172Z,2.45
2022-12-03T02:11:53.184Z,2.45
2022-12-03T02:12:53.163Z,2.47
2022-12-03T02:13:54.903Z,2.48
2022-12-03T02:14:53.466Z,2.48
2022-12-03T02:15:53.175Z,2.47
2022-12-03T02:16:56.931Z,2.47
2022-12-03T02:17:53.500Z,2.47
2022-12-03T02:18:53.058Z,2.47
2022-12-03T02:19:53.064Z,2.47
2022-12-03T02:20:53.054Z,2.48
2022-12-03T02:21:53.014Z,2.45
2022-12-03T02:22:53.014Z,2.47
2022-12-03T02:23:53.035Z,2.50
2022-12-03T02:24:53.314Z,2.48
2022-12-03T02:25:52.973Z,2.45
2022-12-03T02:26:52.967Z,2.47
2022-12-03T02:27:52.947Z,2.43
2022-12-03T02:28:56.803Z,2.43
2022-12-03T02:29:52.981Z,2.45
2022-12-03T02:30:52.908Z,2.45
2022-12-03T02:31:52.960Z,2.44
2022-12-03T02:32:52.908Z,2.43
2022-12-03T02:33:53.816Z,2.40
2022-12-03T02:34:56.775Z,2.40
2022-12-03T02:35:52.886Z,2.41
2022-12-03T02:36:53.671Z,2.41
2022-12-03T02:37:52.832Z,2.40
2022-12-03T02:38:52.809Z,2.41
2022-12-03T02:39:52.812Z,2.41
2022-12-03T02:40:52.876Z,2.41
2022-12-03T02:41:52.839Z,2.40
2022-12-03T02:42:52.788Z,2.37
2022-12-03T02:43:53.577Z,2.38
2022-12-03T02:44:53.105Z,2.38
2022-12-03T02:45:56.708Z,2.38
2022-12-03T02:46:52.774Z,2.37
2022-12-03T02:47:52.742Z,2.38
2022-12-03T02:48:52.717Z,2.37
2022-12-03T02:49:56.572Z,2.40
2022-12-03T02:50:52.682Z,2.40
2022-12-03T02:51:52.649Z,2.40
2022-12-03T02:52:52.651Z,2.41
2022-12-03T02:53:52.663Z,2.40
2022-12-03T02:54:52.967Z,2.38
2022-12-03T02:55:52.618Z,2.33
2022-12-03T02:56:53.573Z,2.36
2022-12-03T02:57:52.643Z,2.36
2022-12-03T02:58:52.574Z,2.37
2022-12-03T02:59:52.685Z,2.38
2022-12-03T03:00:52.675Z,2.40
2022-12-03T03:01:52.625Z,2.37
2022-12-03T03:02:52.514Z,2.37
2022-12-03T03:03:52.506Z,2.33
2022-12-03T03:04:52.824Z,2.36
2022-12-03T03:05:52.534Z,2.32
2022-12-03T03:06:52.475Z,2.32
2022-12-03T03:07:52.530Z,2.33
2022-12-03T03:08:52.466Z,2.32
2022-12-03T03:09:52.436Z,2.30
2022-12-03T03:10:52.428Z,2.32
2022-12-03T03:11:53.138Z,2.30
2022-12-03T03:12:52.419Z,2.30
2022-12-03T03:13:52.395Z,2.29
2022-12-03T03:14:52.719Z,2.29
2022-12-03T03:15:52.376Z,2.26
2022-12-03T03:16:52.401Z,2.27
2022-12-03T03:17:52.372Z,2.26
2022-12-03T03:18:52.671Z,2.25
2022-12-03T03:19:52.322Z,2.23
2022-12-03T03:20:52.306Z,2.22
2022-12-03T03:21:52.288Z,2.20
2022-12-03T03:22:52.289Z,2.22
2022-12-03T03:23:52.318Z,2.23
2022-12-03T03:24:53.288Z,2.26
2022-12-03T03:25:52.244Z,2.25
2022-12-03T03:26:52.230Z,2.23
2022-12-03T03:27:52.220Z,2.22
2022-12-03T03:28:52.227Z,2.22
2022-12-03T03:29:52.399Z,2.22
2022-12-03T03:30:52.181Z,2.26
2022-12-03T03:31:52.237Z,2.22
2022-12-03T03:32:56.035Z,2.19
2022-12-03T03:33:53.144Z,2.15
2022-12-03T03:34:52.476Z,2.18
2022-12-03T03:35:52.122Z,2.18
2022-12-03T03:36:55.911Z,2.15
2022-12-03T03:37:52.124Z,2.19
2022-12-03T03:38:52.102Z,2.19
2022-12-03T03:39:52.082Z,2.19
2022-12-03T03:40:52.102Z,2.19
2022-12-03T03:41:52.042Z,2.18
2022-12-03T03:42:52.035Z,2.18
2022-12-03T03:43:52.032Z,2.18
2022-12-03T03:44:52.384Z,2.19
2022-12-03T03:45:52.096Z,2.19
2022-12-03T03:46:51.992Z,2.19
2022-12-03T03:47:52.796Z,2.20
2022-12-03T03:48:51.956Z,2.22
2022-12-03T03:49:51.955Z,2.20
2022-12-03T03:50:51.940Z,2.23
2022-12-03T03:51:51.954Z,2.23
2022-12-03T03:52:51.933Z,2.25
2022-12-03T03:53:55.814Z,2.23
2022-12-03T03:54:52.905Z,2.25
2022-12-03T03:55:51.879Z,2.25
2022-12-03T03:56:51.885Z,2.25
2022-12-03T03:57:51.866Z,2.22
2022-12-03T03:58:51.827Z,2.23
2022-12-03T03:59:51.826Z,2.22
2022-12-03T04:00:51.918Z,2.23
2022-12-03T04:01:51.807Z,2.22
2022-12-03T04:02:51.846Z,2.23
2022-12-03T04:03:51.813Z,2.26
2022-12-03T04:04:52.217Z,2.25
2022-12-03T04:05:51.758Z,2.25
2022-12-03T04:06:51.729Z,2.25
2022-12-03T04:07:51.782Z,2.23
2022-12-03T04:08:51.742Z,2.23
2022-12-03T04:09:51.708Z,2.25
2022-12-03T04:10:51.679Z,2.23
2022-12-03T04:11:51.670Z,2.25
2022-12-03T04:12:51.918Z,2.26
2022-12-03T04:13:51.649Z,2.23
2022-12-03T04:14:52.026Z,2.25
2022-12-03T04:15:51.627Z,2.25
2022-12-03T04:16:51.708Z,2.25
2022-12-03T04:17:51.609Z,2.25
2022-12-03T04:18:51.591Z,2.22
2022-12-03T04:19:51.576Z,2.23
2022-12-03T04:20:52.551Z,2.22
2022-12-03T04:21:51.553Z,2.23
2022-12-03T04:22:52.524Z,2.23
2022-12-03T04:23:51.522Z,2.19
2022-12-03T04:24:51.725Z,2.18
2022-12-03T04:25:51.518Z,2.18
2022-12-03T04:26:51.692Z,2.15
2022-12-03T04:27:51.490Z,2.14
2022-12-03T04:28:51.460Z,2.12
2022-12-03T04:29:55.439Z,2.12
2022-12-03T04:30:51.511Z,2.14
2022-12-03T04:31:51.447Z,2.14
2022-12-03T04:32:51.883Z,2.14
2022-12-03T04:33:55.296Z,2.12
2022-12-03T04:34:51.836Z,2.15
2022-12-03T04:35:51.446Z,2.15
2022-12-03T04:36:51.377Z,2.12
2022-12-03T04:37:51.374Z,2.12
2022-12-03T04:38:51.542Z,2.12
2022-12-03T04:39:52.203Z,2.12
2022-12-03T04:40:51.612Z,2.09
2022-12-03T04:41:51.308Z,2.09
2022-12-03T04:42:51.875Z,2.09
2022-12-03T04:43:51.289Z,2.07
2022-12-03T04:44:51.812Z,2.11
2022-12-03T04:45:51.959Z,2.09
2022-12-03T04:46:51.255Z,2.08
2022-12-03T04:47:51.931Z,2.08
2022-12-03T04:48:51.297Z,2.09
2022-12-03T04:49:51.756Z,2.09
2022-12-03T04:50:51.262Z,2.07
2022-12-03T04:51:52.935Z,2.07
2022-12-03T04:52:52.107Z,2.07
2022-12-03T04:53:51.178Z,2.05
2022-12-03T04:54:51.321Z,2.09
2022-12-03T04:55:55.747Z,2.09
2022-12-03T04:56:52.158Z,2.09
2022-12-03T04:57:51.112Z,2.04
2022-12-03T04:58:51.296Z,2.05
2022-12-03T04:59:51.088Z,2.07
2022-12-03T05:00:51.123Z,2.08
2022-12-03T05:01:51.143Z,2.09
2022-12-03T05:02:55.908Z,2.08
2022-12-03T05:03:51.059Z,2.07
2022-12-03T05:04:52.225Z,2.07
2022-12-03T05:05:51.022Z,2.09
2022-12-03T05:06:51.025Z,2.11
2022-12-03T05:07:51.067Z,2.08
2022-12-03T05:08:51.931Z,2.09
2022-12-03T05:09:50.984Z,2.07
2022-12-03T05:10:54.822Z,2.07
2022-12-03T05:11:50.961Z,2.05
2022-12-03T05:12:50.942Z,2.08
2022-12-03T05:13:50.960Z,2.07
2022-12-03T05:14:50.974Z,2.04
2022-12-03T05:15:55.104Z,2.04
2022-12-03T05:16:51.905Z,2.04
2022-12-03T05:17:50.906Z,2.04
2022-12-03T05:18:50.884Z,2.04
2022-12-03T05:19:50.875Z,2.04
2022-12-03T05:20:56.168Z,2.04
2022-12-03T05:21:51.836Z,2.04
2022-12-03T05:22:50.831Z,2.01
2022-12-03T05:23:50.814Z,1.98
2022-12-03T05:24:51.124Z,1.95
2022-12-03T05:25:54.666Z,1.95
2022-12-03T05:26:50.754Z,1.93
2022-12-03T05:27:50.751Z,1.93
2022-12-03T05:28:54.649Z,1.89
2022-12-03T05:29:55.565Z,1.90
2022-12-03T05:30:51.797Z,1.92
2022-12-03T05:31:50.757Z,1.90
2022-12-03T05:32:51.638Z,1.89
2022-12-03T05:33:51.660Z,1.89
2022-12-03T05:34:50.861Z,1.93
2022-12-03T05:35:50.647Z,1.90
2022-12-03T05:36:50.695Z,1.90
2022-12-03T05:37:51.108Z,1.90
2022-12-03T05:38:50.626Z,1.89
2022-12-03T05:39:54.599Z,1.88
2022-12-03T05:40:50.592Z,1.90
2022-12-03T05:41:50.581Z,1.88
2022-12-03T05:42:50.561Z,1.88
2022-12-03T05:43:50.667Z,1.90
2022-12-03T05:44:52.105Z,1.88
2022-12-03T05:45:54.601Z,1.86
2022-12-03T05:46:54.429Z,1.86
2022-12-03T05:47:50.528Z,1.88
2022-12-03T05:48:54.760Z,1.89
2022-12-03T05:49:50.618Z,1.89
2022-12-03T05:51:02.004Z,1.89
2022-12-03T05:51:55.101Z,1.85
2022-12-03T05:52:51.447Z,1.85
2022-12-03T05:53:50.448Z,1.85
2022-12-03T05:54:50.554Z,1.81
2022-12-03T05:55:50.438Z,1.82
2022-12-03T05:56:50.392Z,1.83
2022-12-03T05:57:54.673Z,1.82
2022-12-03T05:58:50.388Z,1.81
2022-12-03T05:59:50.362Z,1.81
2022-12-03T06:00:50.631Z,1.85
2022-12-03T06:01:50.364Z,1.82
2022-12-03T06:02:50.426Z,1.79
2022-12-03T06:03:50.757Z,1.77
2022-12-03T06:04:50.518Z,1.79
2022-12-03T06:05:50.299Z,1.81
2022-12-03T06:06:54.562Z,1.82
2022-12-03T06:07:50.827Z,1.85
2022-12-03T06:08:50.333Z,1.83
2022-12-03T06:09:50.243Z,1.81
2022-12-03T06:10:51.023Z,1.79
2022-12-03T06:11:50.492Z,1.77
2022-12-03T06:12:50.325Z,1.82
2022-12-03T06:13:50.194Z,1.81
2022-12-03T06:14:50.177Z,1.82
2022-12-03T06:15:50.259Z,1.77
2022-12-03T06:16:50.164Z,1.79
2022-12-03T06:17:50.145Z,1.75
2022-12-03T06:18:50.465Z,1.72
2022-12-03T06:19:50.127Z,1.71
2022-12-03T06:20:50.108Z,1.72
2022-12-03T06:21:50.103Z,1.72
2022-12-03T06:22:50.766Z,1.71
2022-12-03T06:23:51.706Z,1.68
2022-12-03T06:24:50.170Z,1.70
2022-12-03T06:25:50.837Z,1.68
2022-12-03T06:26:50.041Z,1.67
2022-12-03T06:27:50.297Z,1.68
2022-12-03T06:28:50.007Z,1.65
2022-12-03T06:29:49.997Z,1.65
2022-12-03T06:30:50.247Z,1.65
2022-12-03T06:31:50.899Z,1.65
2022-12-03T06:32:49.970Z,1.65
2022-12-03T06:33:51.449Z,1.65
2022-12-03T06:34:49.947Z,1.64
2022-12-03T06:35:50.610Z,1.64
2022-12-03T06:36:50.031Z,1.65
2022-12-03T06:37:49.907Z,1.64
2022-12-03T06:39:03.770Z,1.64
2022-12-03T06:39:50.691Z,1.61
2022-12-03T06:40:49.880Z,1.61
2022-12-03T06:41:50.170Z,1.60
2022-12-03T06:42:49.861Z,1.64
2022-12-03T06:43:50.560Z,1.64
2022-12-03T06:44:49.821Z,1.64
2022-12-03T06:45:50.134Z,1.64
2022-12-03T06:46:49.864Z,1.65
2022-12-03T06:47:49.782Z,1.63
2022-12-03T06:48:49.791Z,1.63
2022-12-03T06:49:49.773Z,1.61
2022-12-03T06:50:50.032Z,1.63
2022-12-03T06:51:50.501Z,1.61
2022-12-03T06:52:49.724Z,1.61
2022-12-03T06:53:50.004Z,1.56
2022-12-03T06:54:51.196Z,1.56
2022-12-03T06:55:49.683Z,1.56
2022-12-03T06:56:49.664Z,1.53
2022-12-03T06:57:49.645Z,1.52
2022-12-03T06:58:50.400Z,1.54
2022-12-03T06:59:49.639Z,1.52
2022-12-03T07:00:49.675Z,1.50
2022-12-03T07:01:49.774Z,1.53
2022-12-03T07:02:50.302Z,1.52
2022-12-03T07:03:50.555Z,1.50
2022-12-03T07:04:49.869Z,1.49
2022-12-03T07:05:49.557Z,1.49
2022-12-03T07:07:00.273Z,1.50
2022-12-03T07:07:49.568Z,1.49
2022-12-03T07:08:49.507Z,1.47
2022-12-03T07:09:49.514Z,1.49
2022-12-03T07:10:49.484Z,1.50
2022-12-03T07:11:49.479Z,1.52
2022-12-03T07:12:49.597Z,1.52
2022-12-03T07:13:50.267Z,1.50
2022-12-03T07:14:49.677Z,1.50
2022-12-03T07:15:49.801Z,1.50
2022-12-03T07:16:50.379Z,1.47
2022-12-03T07:17:51.460Z,1.49
2022-12-03T07:18:49.408Z,1.50
2022-12-03T07:19:50.089Z,1.50
2022-12-03T07:20:49.349Z,1.52
2022-12-03T07:21:49.630Z,1.50
2022-12-03T07:22:49.369Z,1.50
2022-12-03T07:23:49.350Z,1.53
2022-12-03T07:24:53.483Z,1.52
2022-12-03T07:25:49.320Z,1.50
2022-12-03T07:26:49.571Z,1.52
2022-12-03T07:27:49.310Z,1.53
2022-12-03T07:28:50.031Z,1.52
2022-12-03T07:29:51.190Z,1.52
2022-12-03T07:30:49.300Z,1.52
2022-12-03T07:31:49.323Z,1.50
2022-12-03T07:32:49.489Z,1.52
2022-12-03T07:33:49.223Z,1.50
2022-12-03T07:34:53.272Z,1.50
2022-12-03T07:35:49.192Z,1.47
2022-12-03T07:36:49.192Z,1.49
2022-12-03T07:37:49.873Z,1.47
2022-12-03T07:38:49.187Z,1.49
2022-12-03T07:39:50.053Z,1.50
2022-12-03T07:40:49.113Z,1.46
2022-12-03T07:41:49.121Z,1.46
2022-12-03T07:42:49.142Z,1.50
2022-12-03T07:43:49.108Z,1.50
2022-12-03T07:44:49.065Z,1.47
2022-12-03T07:45:49.066Z,1.52
2022-12-03T07:46:49.141Z,1.53
2022-12-03T07:47:49.046Z,1.52
2022-12-03T07:48:49.128Z,1.53
2022-12-03T07:49:49.035Z,1.54
2022-12-03T07:50:48.995Z,1.56
2022-12-03T07:51:48.986Z,1.54
2022-12-03T07:52:48.965Z,1.52
2022-12-03T07:53:48.976Z,1.50
2022-12-03T07:54:49.057Z,1.49
2022-12-03T07:55:48.958Z,1.50
2022-12-03T07:56:48.917Z,1.46
2022-12-03T07:57:48.907Z,1.46
2022-12-03T07:58:48.886Z,1.46
2022-12-03T07:59:48.885Z,1.47
2022-12-03T08:00:49.038Z,1.46
2022-12-03T08:01:48.914Z,1.38
2022-12-03T08:02:48.930Z,1.38
2022-12-03T08:03:48.839Z,1.42
2022-12-03T08:04:49.137Z,1.43
2022-12-03T08:05:49.778Z,1.39
2022-12-03T08:06:48.969Z,1.39
2022-12-03T08:07:49.099Z,1.38
2022-12-03T08:08:48.788Z,1.35
2022-12-03T08:09:49.029Z,1.34
2022-12-03T08:10:48.757Z,1.35
2022-12-03T08:11:48.745Z,1.35
2022-12-03T08:12:48.859Z,1.34
2022-12-03T08:13:48.723Z,1.32
2022-12-03T08:14:48.709Z,1.32
2022-12-03T08:15:48.689Z,1.32
2022-12-03T08:16:48.772Z,1.32
2022-12-03T08:17:48.661Z,1.32
2022-12-03T08:18:48.713Z,1.34
2022-12-03T08:19:48.657Z,1.31
2022-12-03T08:20:49.585Z,1.32
2022-12-03T08:21:48.627Z,1.31
2022-12-03T08:22:48.606Z,1.34
2022-12-03T08:23:49.260Z,1.35
2022-12-03T08:24:48.603Z,1.39
2022-12-03T08:25:48.586Z,1.35
2022-12-03T08:26:48.854Z,1.38
2022-12-03T08:27:48.905Z,1.36
2022-12-03T08:28:48.523Z,1.36
2022-12-03T08:29:48.513Z,1.36
2022-12-03T08:30:48.543Z,1.38
2022-12-03T08:31:48.495Z,1.38
2022-12-03T08:32:48.473Z,1.42
2022-12-03T08:33:48.464Z,1.43
2022-12-03T08:34:49.947Z,1.42
2022-12-03T08:35:49.298Z,1.42
2022-12-03T08:36:48.455Z,1.43
2022-12-03T08:37:48.435Z,1.38
2022-12-03T08:38:48.456Z,1.39
2022-12-03T08:39:48.413Z,1.38
2022-12-03T08:40:48.378Z,1.31
2022-12-03T08:41:48.368Z,1.31
2022-12-03T08:42:48.378Z,1.31
2022-12-03T08:43:48.498Z,1.35
2022-12-03T08:44:48.339Z,1.38
2022-12-03T08:45:48.442Z,1.38
2022-12-03T08:46:48.308Z,1.38
2022-12-03T08:47:48.287Z,1.36
2022-12-03T08:48:49.585Z,1.34
2022-12-03T08:49:48.257Z,1.34
2022-12-03T08:50:48.271Z,1.36
2022-12-03T08:51:48.230Z,1.36
2022-12-03T08:52:48.240Z,1.32
2022-12-03T08:53:48.900Z,1.31
2022-12-03T08:54:48.318Z,1.29
2022-12-03T08:55:48.205Z,1.26
2022-12-03T08:56:48.179Z,1.25
2022-12-03T08:57:48.170Z,1.21
2022-12-03T08:58:48.167Z,1.21
2022-12-03T08:59:48.215Z,1.24
2022-12-03T09:00:48.236Z,1.26
2022-12-03T09:01:48.176Z,1.26
2022-12-03T09:02:48.120Z,1.28
2022-12-03T09:03:48.164Z,1.25
2022-12-03T09:04:48.089Z,1.29
2022-12-03T09:05:48.331Z,1.24
2022-12-03T09:06:48.092Z,1.24
2022-12-03T09:07:48.101Z,1.25
2022-12-03T09:08:48.052Z,1.28
2022-12-03T09:09:48.020Z,1.29
2022-12-03T09:10:48.043Z,1.32
2022-12-03T09:11:48.010Z,1.34
2022-12-03T09:12:48.130Z,1.35
2022-12-03T09:13:48.042Z,1.35
2022-12-03T09:14:47.962Z,1.32
2022-12-03T09:15:47.972Z,1.31
2022-12-03T09:16:48.072Z,1.32
2022-12-03T09:17:47.933Z,1.34
2022-12-03T09:18:48.043Z,1.38
2022-12-03T09:19:48.725Z,1.39
2022-12-03T09:20:47.893Z,1.42
2022-12-03T09:21:47.882Z,1.35
2022-12-03T09:22:47.873Z,1.32
2022-12-03T09:23:47.843Z,1.32
2022-12-03T09:24:47.854Z,1.35
2022-12-03T09:25:47.817Z,1.34
2022-12-03T09:26:48.785Z,1.35
2022-12-03T09:27:48.636Z,1.31
2022-12-03T09:28:47.797Z,1.32
2022-12-03T09:29:47.778Z,1.36
2022-12-03T09:30:47.793Z,1.42
2022-12-03T09:31:47.841Z,1.46
2022-12-03T09:32:47.753Z,1.46
2022-12-03T09:33:47.735Z,1.44
2022-12-03T09:34:47.714Z,1.46
2022-12-03T09:35:47.700Z,1.44
2022-12-03T09:36:47.808Z,1.38
2022-12-03T09:37:48.646Z,1.39
2022-12-03T09:38:48.369Z,1.36
2022-12-03T09:39:47.659Z,1.38
2022-12-03T09:40:47.649Z,1.36
2022-12-03T09:41:47.857Z,1.38
2022-12-03T09:42:47.694Z,1.38
2022-12-03T09:44:03.828Z,1.35
2022-12-03T09:44:49.575Z,1.38
2022-12-03T09:45:47.589Z,1.35
2022-12-03T09:46:47.601Z,1.38
2022-12-03T09:47:47.553Z,1.32
2022-12-03T09:48:47.560Z,1.35
2022-12-03T09:49:47.630Z,1.39
2022-12-03T09:50:47.643Z,1.42
2022-12-03T09:51:47.840Z,1.42
2022-12-03T09:52:47.500Z,1.43
2022-12-03T09:53:47.483Z,1.47
2022-12-03T09:54:52.276Z,1.50
2022-12-03T09:55:47.632Z,1.44
2022-12-03T09:56:47.442Z,1.49
2022-12-03T09:57:47.423Z,1.52
2022-12-03T09:58:47.691Z,1.54
2022-12-03T09:59:47.431Z,1.56
2022-12-03T10:00:47.612Z,1.57
2022-12-03T10:01:47.432Z,1.60
2022-12-03T10:02:47.374Z,1.64
2022-12-03T10:03:47.361Z,1.61
2022-12-03T10:04:47.416Z,1.60
2022-12-03T10:05:48.350Z,1.61
2022-12-03T10:06:47.394Z,1.65
2022-12-03T10:07:47.375Z,1.61
2022-12-03T10:08:47.297Z,1.64
2022-12-03T10:09:47.586Z,1.64
2022-12-03T10:10:48.235Z,1.63
2022-12-03T10:11:47.255Z,1.63
2022-12-03T10:12:47.273Z,1.63
2022-12-03T10:13:47.243Z,1.61
2022-12-03T10:14:47.228Z,1.63
2022-12-03T10:15:47.265Z,1.60
2022-12-03T10:16:47.250Z,1.64
2022-12-03T10:17:47.178Z,1.67
2022-12-03T10:18:47.207Z,1.68
2022-12-03T10:19:47.167Z,1.67
2022-12-03T10:20:47.164Z,1.60
2022-12-03T10:21:47.213Z,1.54
2022-12-03T10:22:47.126Z,1.54
2022-12-03T10:23:49.508Z,1.56
2022-12-03T10:24:48.127Z,1.56
2022-12-03T10:25:47.160Z,1.56
2022-12-03T10:26:47.078Z,1.54
2022-12-03T10:27:47.065Z,1.53
2022-12-03T10:28:47.048Z,1.54
2022-12-03T10:29:47.029Z,1.54
2022-12-03T10:30:47.113Z,1.61
2022-12-03T10:31:47.056Z,1.54
2022-12-03T10:32:47.022Z,1.52
2022-12-03T10:33:46.989Z,1.52
2022-12-03T10:34:46.992Z,1.52
2022-12-03T10:35:46.959Z,1.50
2022-12-03T10:36:46.989Z,1.53
2022-12-03T10:37:46.937Z,1.53
2022-12-03T10:38:46.951Z,1.47
2022-12-03T10:39:51.070Z,1.44
2022-12-03T10:40:47.941Z,1.49
2022-12-03T10:41:47.850Z,1.50
2022-12-03T10:42:47.289Z,1.44
2022-12-03T10:43:46.871Z,1.43
2022-12-03T10:44:46.867Z,1.43
2022-12-03T10:45:46.925Z,1.46
2022-12-03T10:46:46.940Z,1.50
2022-12-03T10:47:46.875Z,1.47
2022-12-03T10:48:46.831Z,1.49
2022-12-03T10:49:46.792Z,1.53
2022-12-03T10:50:46.792Z,1.54
2022-12-03T10:51:46.838Z,1.56
2022-12-03T10:52:46.811Z,1.54
2022-12-03T10:53:46.750Z,1.56
2022-12-03T10:54:46.782Z,1.47
2022-12-03T10:55:46.726Z,1.43
2022-12-03T10:56:46.722Z,1.39
2022-12-03T10:57:46.696Z,1.34
2022-12-03T10:58:46.694Z,1.29
2022-12-03T10:59:46.687Z,1.34
2022-12-03T11:00:46.694Z,1.35
2022-12-03T11:01:46.779Z,1.38
2022-12-03T11:02:50.393Z,1.38
2022-12-03T11:03:47.691Z,1.42
2022-12-03T11:04:46.624Z,1.43
2022-12-03T11:05:46.604Z,1.44
2022-12-03T11:06:47.429Z,1.39
2022-12-03T11:07:46.634Z,1.36
2022-12-03T11:08:50.309Z,1.38
2022-12-03T11:09:47.558Z,1.44
2022-12-03T11:10:46.535Z,1.39
2022-12-03T11:11:46.530Z,1.35
2022-12-03T11:12:46.535Z,1.32
2022-12-03T11:13:46.498Z,1.26
2022-12-03T11:14:46.493Z,1.28
2022-12-03T11:15:46.577Z,1.29
2022-12-03T11:16:46.473Z,1.32
2022-12-03T11:17:46.438Z,1.29
2022-12-03T11:18:46.547Z,1.34
2022-12-03T11:19:46.430Z,1.38
2022-12-03T11:20:46.417Z,1.39
2022-12-03T11:21:46.398Z,1.35
2022-12-03T11:22:47.338Z,1.35
2022-12-03T11:23:46.381Z,1.35
2022-12-03T11:24:46.393Z,1.31
2022-12-03T11:25:46.361Z,1.32
2022-12-03T11:26:46.368Z,1.31
2022-12-03T11:27:46.359Z,1.31
2022-12-03T11:28:46.378Z,1.34
2022-12-03T11:29:46.308Z,1.38
2022-12-03T11:30:46.790Z,1.36
2022-12-03T11:31:46.499Z,1.36
2022-12-03T11:32:46.280Z,1.34
2022-12-03T11:33:46.263Z,1.32
2022-12-03T11:34:46.370Z,1.42
2022-12-03T11:35:46.306Z,1.42
2022-12-03T11:37:01.154Z,1.32
2022-12-03T11:37:47.224Z,1.29
2022-12-03T11:38:52.368Z,1.31
2022-12-03T11:39:47.172Z,1.32
2022-12-03T11:40:46.164Z,1.35
2022-12-03T11:41:46.155Z,1.34
2022-12-03T11:42:46.184Z,1.35
2022-12-03T11:43:46.130Z,1.35
2022-12-03T11:44:46.137Z,1.36
2022-12-03T11:45:46.103Z,1.38
2022-12-03T11:46:46.176Z,1.39
2022-12-03T11:47:46.085Z,1.36
2022-12-03T11:48:46.196Z,1.25
2022-12-03T11:49:46.055Z,1.25
2022-12-03T11:50:46.047Z,1.21
2022-12-03T11:51:46.059Z,1.18
2022-12-03T11:52:46.023Z,1.20
2022-12-03T11:53:46.023Z,1.20
2022-12-03T11:54:46.103Z,1.21
2022-12-03T11:55:45.982Z,1.18
2022-12-03T11:56:45.976Z,1.13
2022-12-03T11:57:45.954Z,1.16
2022-12-03T11:58:46.186Z,1.14
2022-12-03T11:59:46.757Z,1.13
2022-12-03T12:00:45.946Z,1.16
2022-12-03T12:01:45.907Z,1.17
2022-12-03T12:02:45.935Z,1.21
2022-12-03T12:03:46.011Z,1.25
2022-12-03T12:04:45.885Z,1.26
2022-12-03T12:05:45.857Z,1.28
2022-12-03T12:06:48.814Z,1.31
2022-12-03T12:07:45.912Z,1.26
2022-12-03T12:08:45.834Z,1.26
2022-12-03T12:09:45.828Z,1.21
2022-12-03T12:10:45.796Z,1.20
2022-12-03T12:11:45.784Z,1.24
2022-12-03T12:12:54.366Z,1.29
2022-12-03T12:13:46.769Z,1.29
2022-12-03T12:14:46.700Z,1.34
2022-12-03T12:15:45.769Z,1.43
2022-12-03T12:16:45.926Z,1.36
2022-12-03T12:17:45.719Z,1.26
2022-12-03T12:18:45.757Z,1.25
2022-12-03T12:19:49.706Z,1.17
2022-12-03T12:20:46.933Z,1.25
2022-12-03T12:21:45.669Z,1.29
2022-12-03T12:22:45.653Z,1.29
2022-12-03T12:23:45.640Z,1.21
2022-12-03T12:24:45.760Z,1.21
2022-12-03T12:25:50.861Z,1.21
2022-12-03T12:26:46.594Z,1.21
2022-12-03T12:27:45.627Z,1.24
2022-12-03T12:28:45.568Z,1.25
2022-12-03T12:29:45.562Z,1.25
2022-12-03T12:30:45.568Z,1.26
2022-12-03T12:31:49.478Z,1.24
2022-12-03T12:32:46.541Z,1.18
2022-12-03T12:33:45.503Z,1.16
2022-12-03T12:34:45.616Z,1.17
2022-12-03T12:35:45.490Z,1.14
2022-12-03T12:36:45.575Z,1.13
2022-12-03T12:37:47.711Z,1.11
2022-12-03T12:38:49.444Z,1.13
2022-12-03T12:39:45.445Z,1.16
2022-12-03T12:40:45.463Z,1.17
2022-12-03T12:41:45.424Z,1.17
2022-12-03T12:42:46.096Z,1.20
2022-12-03T12:43:45.395Z,1.13
2022-12-03T12:44:45.387Z,1.18
2022-12-03T12:45:45.385Z,1.20
2022-12-03T12:46:48.412Z,1.29
2022-12-03T12:47:45.431Z,1.28
2022-12-03T12:48:45.346Z,1.35
2022-12-03T12:49:51.463Z,1.38
2022-12-03T12:50:46.298Z,1.44
2022-12-03T12:51:47.987Z,1.43
2022-12-03T12:52:45.291Z,1.46
2022-12-03T12:53:45.268Z,1.43
2022-12-03T12:54:45.299Z,1.44
2022-12-03T12:55:49.090Z,1.44
2022-12-03T12:56:45.228Z,1.52
2022-12-03T12:57:45.227Z,1.50
2022-12-03T12:58:45.229Z,1.52
2022-12-03T12:59:45.489Z,1.52
2022-12-03T13:00:45.332Z,1.52
2022-12-03T13:01:45.682Z,1.50
2022-12-03T13:02:45.244Z,1.47
2022-12-03T13:03:45.149Z,1.46
2022-12-03T13:04:45.129Z,1.46
2022-12-03T13:05:45.114Z,1.47
2022-12-03T13:06:45.479Z,1.50
2022-12-03T13:07:45.174Z,1.46
2022-12-03T13:08:46.032Z,1.44
2022-12-03T13:09:49.025Z,1.42
2022-12-03T13:10:45.052Z,1.38
2022-12-03T13:11:45.049Z,1.42
2022-12-03T13:12:45.253Z,1.44
2022-12-03T13:13:45.041Z,1.43
2022-12-03T13:14:49.321Z,1.44
2022-12-03T13:15:44.992Z,1.47
2022-12-03T13:16:45.051Z,1.49
2022-12-03T13:17:48.774Z,1.49
2022-12-03T13:18:45.116Z,1.44